createdAt,value
2022-08-14T00:02:05.269Z,14.70
2022-08-14T00:04:44.756Z,14.85
2022-08-14T00:07:25.042Z,14.70
2022-08-14T00:10:51.844Z,14.54
2022-08-14T00:13:07.281Z,14.37
2022-08-14T00:15:44.098Z,14.31
2022-08-14T00:18:30.966Z,14.35
2022-08-14T00:24:13.932Z,14.27
2022-08-14T00:26:55.786Z,14.36
2022-08-14T00:29:27.403Z,14.22
2022-08-14T00:32:50.311Z,14.30
2022-08-14T00:34:57.713Z,14.36
2022-08-14T00:37:32.193Z,14.34
2022-08-14T00:40:27.366Z,14.43
2022-08-14T00:42:56.688Z,14.34
2022-08-14T00:45:27.887Z,14.16
2022-08-14T00:50:47.434Z,14.02
2022-08-14T00:53:22.825Z,13.83
2022-08-14T00:56:07.072Z,14.00
2022-08-14T00:58:44.984Z,14.12
2022-08-14T01:01:20.525Z,14.15
2022-08-14T01:03:55.729Z,14.17
2022-08-14T01:06:34.505Z,14.22
2022-08-14T01:09:14.885Z,14.02
2022-08-14T01:11:45.098Z,13.95
2022-08-14T01:14:31.589Z,13.94
2022-08-14T01:17:03.754Z,13.96
2022-08-14T01:19:50.033Z,13.91
2022-08-14T01:22:31.488Z,14.09
2022-08-14T01:25:11.339Z,14.11
2022-08-14T01:27:56.726Z,13.94
2022-08-14T01:30:28.740Z,13.60
2022-08-14T01:33:10.395Z,13.58
2022-08-14T01:36:05.127Z,13.72
2022-08-14T01:38:39.883Z,13.68
2022-08-14T01:41:31.666Z,13.74
2022-08-14T01:44:32.350Z,13.81
2022-08-14T01:47:21.381Z,14.11
2022-08-14T01:50:01.208Z,13.92
2022-08-14T01:52:58.664Z,13.70
2022-08-14T01:55:32.585Z,13.57
2022-08-14T01:58:29.610Z,13.72
2022-08-14T02:01:00.543Z,13.60
2022-08-14T02:03:40.312Z,13.63
2022-08-14T02:06:32.163Z,13.75
2022-08-14T02:09:19.150Z,13.72
2022-08-14T02:12:02.883Z,13.78
2022-08-14T02:14:37.808Z,13.73
2022-08-14T02:17:14.367Z,13.70
2022-08-14T02:19:48.293Z,13.68
2022-08-14T02:22:28.679Z,13.71
2022-08-14T02:25:10.785Z,13.58
2022-08-14T02:28:22.668Z,13.41
2022-08-14T02:30:38.233Z,13.14
2022-08-14T02:33:23.681Z,13.21
2022-08-14T02:36:45.972Z,13.40
2022-08-14T02:38:56.513Z,13.43
2022-08-14T02:41:36.648Z,13.47
2022-08-14T02:44:30.012Z,13.46
2022-08-14T02:47:07.107Z,13.44
2022-08-14T02:49:50.564Z,13.48
2022-08-14T02:52:26.863Z,13.53
2022-08-14T02:55:20.493Z,13.67
2022-08-14T02:58:02.913Z,13.59
2022-08-14T03:00:40.553Z,13.55
2022-08-14T03:03:14.353Z,13.42
2022-08-14T03:05:50.237Z,13.55
2022-08-14T03:08:34.774Z,13.72
2022-08-14T03:11:15.657Z,13.76
2022-08-14T03:13:55.863Z,13.56
2022-08-14T03:16:35.973Z,13.62
2022-08-14T03:19:14.089Z,13.75
2022-08-14T03:21:53.120Z,13.93
2022-08-14T03:24:23.673Z,13.83
2022-08-14T03:26:57.719Z,13.93
2022-08-14T03:29:40.733Z,13.60
2022-08-14T03:32:30.389Z,14.05
2022-08-14T03:35:09.592Z,14.04
2022-08-14T03:39:10.691Z,13.91
2022-08-14T03:40:45.736Z,13.91
2022-08-14T03:43:18.422Z,13.92
2022-08-14T03:45:54.794Z,13.94
2022-08-14T03:51:09.394Z,13.72
2022-08-14T03:53:46.592Z,13.89
2022-08-14T03:56:29.573Z,13.94
2022-08-14T03:59:08.133Z,14.05
2022-08-14T04:01:57.925Z,14.06
2022-08-14T04:04:33.743Z,14.01
2022-08-14T04:07:13.166Z,14.00
2022-08-14T04:09:46.634Z,13.97
2022-08-14T04:12:26.462Z,13.90
2022-08-14T04:15:11.849Z,14.06
2022-08-14T04:17:55.777Z,13.86
2022-08-14T04:20:30.820Z,13.82
2022-08-14T04:23:23.286Z,13.90
2022-08-14T04:25:59.369Z,13.88
2022-08-14T04:28:58.794Z,14.01
2022-08-14T04:32:57.683Z,14.05
2022-08-14T04:34:27.906Z,14.03
2022-08-14T04:37:24.879Z,13.90
2022-08-14T04:40:17.571Z,13.97
2022-08-14T04:43:05.730Z,14.06
2022-08-14T04:45:52.305Z,14.10
2022-08-14T04:48:36.789Z,14.09
2022-08-14T04:51:20.651Z,14.07
2022-08-14T04:54:08.468Z,14.24
2022-08-14T04:56:40.641Z,14.14
2022-08-14T04:59:16.868Z,14.06
2022-08-14T05:01:57.361Z,13.92
2022-08-14T05:04:32.266Z,13.91
2022-08-14T05:07:08.402Z,13.99
2022-08-14T05:09:48.061Z,13.81
2022-08-14T05:13:11.675Z,14.20
2022-08-14T05:15:12.000Z,13.90
2022-08-14T05:18:03.750Z,14.00
2022-08-14T05:21:59.714Z,13.85
2022-08-14T05:24:17.498Z,13.86
2022-08-14T05:26:52.164Z,13.98
2022-08-14T05:29:27.498Z,14.04
2022-08-14T05:32:04.466Z,14.10
2022-08-14T05:34:35.955Z,14.21
2022-08-14T05:37:06.701Z,14.42
2022-08-14T05:39:37.981Z,14.42
2022-08-14T05:42:38.325Z,14.44
2022-08-14T05:45:18.817Z,14.45
2022-08-14T05:47:51.482Z,14.42
2022-08-14T05:50:22.509Z,14.58
2022-08-14T05:52:55.247Z,14.67
2022-08-14T05:55:33.172Z,14.59
2022-08-14T05:58:08.843Z,14.76
2022-08-14T06:00:41.870Z,14.70
2022-08-14T06:03:18.592Z,14.82
2022-08-14T06:05:52.026Z,14.88
2022-08-14T06:08:41.252Z,14.80
2022-08-14T06:11:14.893Z,14.87
2022-08-14T06:14:01.942Z,15.02
2022-08-14T06:16:34.690Z,15.02
2022-08-14T06:19:18.426Z,15.14
2022-08-14T06:21:59.173Z,15.01
2022-08-14T06:24:34.997Z,15.24
2022-08-14T06:27:13.695Z,15.03
2022-08-14T06:29:51.881Z,14.96
2022-08-14T06:32:36.733Z,15.28
2022-08-14T06:35:19.835Z,15.38
2022-08-14T06:37:56.859Z,15.52
2022-08-14T06:40:40.334Z,15.78
2022-08-14T06:43:15.207Z,16.00
2022-08-14T06:46:01.236Z,16.27
2022-08-14T06:48:37.544Z,16.22
2022-08-14T06:51:25.197Z,16.40
2022-08-14T06:54:11.870Z,16.29
2022-08-14T06:56:44.154Z,16.02
2022-08-14T06:59:19.915Z,15.99
2022-08-14T07:02:13.340Z,16.19
2022-08-14T07:05:05.385Z,16.17
2022-08-14T07:07:42.708Z,16.18
2022-08-14T07:10:21.516Z,15.97
2022-08-14T07:12:56.652Z,16.15
2022-08-14T07:15:40.001Z,16.57
2022-08-14T07:18:16.978Z,16.43
2022-08-14T07:20:48.540Z,16.65
2022-08-14T07:23:24.592Z,16.47
2022-08-14T07:26:00.453Z,16.91
2022-08-14T07:28:44.167Z,17.07
2022-08-14T07:31:25.640Z,17.15
2022-08-14T07:33:54.620Z,17.57
2022-08-14T07:36:33.234Z,17.58
2022-08-14T07:39:16.379Z,17.80
2022-08-14T07:42:00.249Z,17.88
2022-08-14T07:44:46.271Z,18.06
2022-08-14T07:47:29.066Z,18.08
2022-08-14T07:50:21.584Z,18.35
2022-08-14T07:52:55.330Z,18.64
2022-08-14T07:55:29.436Z,18.66
2022-08-14T07:58:05.884Z,18.62
2022-08-14T08:00:57.839Z,18.74
2022-08-14T08:03:35.467Z,18.92
2022-08-14T08:06:17.373Z,19.10
2022-08-14T08:09:03.149Z,19.09
2022-08-14T08:11:37.833Z,19.21
2022-08-14T08:14:17.602Z,19.55
2022-08-14T08:17:04.145Z,19.82
2022-08-14T08:19:39.946Z,19.71
2022-08-14T08:22:12.139Z,20.04
2022-08-14T08:24:52.805Z,20.16
2022-08-14T08:27:26.793Z,20.21
2022-08-14T08:30:21.365Z,20.10
2022-08-14T08:32:52.322Z,20.44
2022-08-14T08:35:46.326Z,20.65
2022-08-14T08:39:18.457Z,20.84
2022-08-14T08:41:18.303Z,20.98
2022-08-14T08:43:48.421Z,20.79
2022-08-14T08:46:32.219Z,20.85
2022-08-14T08:49:21.349Z,21.12
2022-08-14T08:51:54.209Z,21.50
2022-08-14T08:54:31.106Z,21.49
2022-08-14T08:57:18.374Z,21.58
2022-08-14T08:59:58.820Z,21.66
2022-08-14T09:05:18.982Z,22.33
2022-08-14T09:08:00.275Z,22.40
2022-08-14T09:10:30.955Z,22.81
2022-08-14T09:13:13.066Z,22.87
2022-08-14T09:15:52.590Z,23.03
2022-08-14T09:18:30.209Z,22.92
2022-08-14T09:21:07.164Z,23.32
2022-08-14T09:24:26.228Z,23.65
2022-08-14T10:06:47.722Z,25.57
2022-08-14T10:09:18.568Z,25.74
2022-08-14T10:12:04.537Z,25.94
2022-08-14T10:14:43.166Z,26.08
2022-08-14T10:17:31.748Z,26.25
2022-08-14T10:20:39.732Z,26.27
2022-08-14T10:23:26.061Z,26.23
2022-08-14T10:26:06.949Z,26.27
2022-08-14T10:29:17.911Z,26.48
2022-08-14T10:31:47.560Z,26.84
2022-08-14T10:34:33.460Z,27.23
2022-08-14T10:37:23.661Z,27.19
2022-08-14T10:40:37.385Z,27.09
2022-08-14T10:43:02.420Z,27.43
2022-08-14T10:45:46.189Z,27.33
2022-08-14T10:48:37.055Z,26.95
2022-08-14T10:51:18.623Z,27.41
2022-08-14T10:53:59.587Z,27.44
2022-08-14T10:56:43.038Z,27.58
2022-08-14T10:59:21.728Z,27.87
2022-08-14T11:01:51.316Z,28.04
2022-08-14T11:04:31.243Z,27.97
2022-08-14T11:07:07.557Z,28.15
2022-08-14T11:09:36.562Z,28.29
2022-08-14T11:12:34.926Z,28.36
2022-08-14T11:15:12.327Z,28.15
2022-08-14T11:17:45.907Z,28.03
2022-08-14T11:20:20.827Z,28.20
2022-08-14T11:23:00.303Z,27.98
2022-08-14T11:25:36.918Z,28.24
2022-08-14T11:28:19.649Z,28.84
2022-08-14T11:31:14.028Z,28.96
2022-08-14T11:33:44.027Z,29.29
2022-08-14T11:36:19.116Z,29.47
2022-08-14T11:38:50.573Z,29.56
2022-08-14T11:41:26.316Z,29.58
2022-08-14T11:43:59.809Z,29.39
2022-08-14T11:46:37.790Z,29.02
2022-08-14T11:49:08.100Z,29.26
2022-08-14T11:51:56.618Z,29.66
2022-08-14T11:54:33.598Z,29.82
2022-08-14T11:57:02.459Z,29.60
2022-08-14T11:59:38.533Z,29.93
2022-08-14T12:03:00.601Z,29.79
2022-08-14T12:05:23.323Z,29.90
2022-08-14T12:07:59.374Z,29.90
2022-08-14T12:10:42.954Z,29.71
2022-08-14T12:13:14.234Z,29.87
2022-08-14T12:16:11.253Z,30.71
2022-08-14T12:18:58.706Z,31.05
2022-08-14T12:21:32.296Z,31.32
2022-08-14T12:24:05.160Z,31.60
2022-08-14T12:26:41.518Z,31.93
2022-08-14T12:29:27.459Z,30.93
2022-08-14T12:32:08.779Z,30.92
2022-08-14T12:34:45.128Z,31.40
2022-08-14T12:37:19.840Z,31.47
2022-08-14T12:39:52.493Z,31.68
2022-08-14T12:42:34.535Z,31.94
2022-08-14T12:45:05.660Z,31.78
2022-08-14T12:47:35.679Z,32.18
2022-08-14T12:50:12.925Z,31.95
2022-08-14T12:53:01.884Z,31.83
2022-08-14T12:56:18.483Z,31.46
2022-08-14T12:58:51.863Z,32.64
2022-08-14T13:01:28.136Z,32.65
2022-08-14T13:04:20.595Z,32.90
2022-08-14T13:06:59.251Z,32.62
2022-08-14T13:09:36.513Z,32.13
2022-08-14T13:12:32.576Z,32.71
2022-08-14T13:15:09.537Z,33.35
2022-08-14T13:17:45.593Z,33.70
2022-08-14T13:20:23.276Z,33.38
2022-08-14T13:22:56.173Z,33.94
2022-08-14T13:25:32.800Z,33.62
2022-08-14T13:28:30.308Z,34.13
2022-08-14T13:31:11.438Z,34.39
2022-08-14T13:33:43.727Z,34.05
2022-08-14T13:36:24.052Z,33.60
2022-08-14T13:38:59.445Z,34.32
2022-08-14T13:41:36.765Z,35.21
2022-08-14T13:44:13.744Z,39.58
2022-08-14T13:46:51.893Z,40.80
2022-08-14T13:49:23.918Z,41.13
2022-08-14T13:51:59.503Z,40.19
2022-08-14T13:54:35.600Z,40.64
2022-08-14T13:57:09.271Z,40.59
2022-08-14T13:59:41.299Z,39.39
2022-08-14T14:02:12.440Z,40.31
2022-08-14T14:05:05.225Z,39.78
2022-08-14T14:07:39.289Z,38.52
2022-08-14T14:10:25.185Z,40.82
2022-08-14T14:13:08.209Z,40.06
2022-08-14T14:15:57.924Z,41.26
